sensor_id;sensor_type;location;lat;lon;timestamp;P1;durP1;ratioP1;P2;durP2;ratioP2
55312;SDS011;46892;45.668;11.756;2023-05-19T00:00:01;6.50;;;3.87;;
55312;SDS011;46892;45.668;11.756;2023-05-19T00:02:28;7.10;;;3.40;;
55312;SDS011;46892;45.668;11.756;2023-05-19T00:04:57;6.90;;;3.60;;
55312;SDS011;46892;45.668;11.756;2023-05-19T00:07:25;5.87;;;3.23;;
55312;SDS011;46892;45.668;11.756;2023-05-19T00:09:54;5.57;;;3.42;;
55312;SDS011;46892;45.668;11.756;2023-05-19T00:12:20;6.80;;;3.70;;
55312;SDS011;46892;45.668;11.756;2023-05-19T00:14:47;5.50;;;3.23;;
55312;SDS011;46892;45.668;11.756;2023-05-19T00:17:13;10.63;;;3.60;;
55312;SDS011;46892;45.668;11.756;2023-05-19T00:19:41;5.80;;;3.60;;
55312;SDS011;46892;45.668;11.756;2023-05-19T00:22:09;5.93;;;3.03;;
55312;SDS011;46892;45.668;11.756;2023-05-19T00:24:35;10.13;;;3.80;;
55312;SDS011;46892;45.668;11.756;2023-05-19T00:27:00;5.23;;;3.30;;
55312;SDS011;46892;45.668;11.756;2023-05-19T00:29:26;6.87;;;3.70;;
55312;SDS011;46892;45.668;11.756;2023-05-19T00:31:52;6.50;;;3.63;;
55312;SDS011;46892;45.668;11.756;2023-05-19T00:34:18;5.67;;;3.87;;
55312;SDS011;46892;45.668;11.756;2023-05-19T00:36:44;10.07;;;3.80;;
55312;SDS011;46892;45.668;11.756;2023-05-19T00:39:09;7.57;;;4.07;;
55312;SDS011;46892;45.668;11.756;2023-05-19T00:41:35;5.53;;;3.57;;
55312;SDS011;46892;45.668;11.756;2023-05-19T00:44:01;8.47;;;4.10;;
55312;SDS011;46892;45.668;11.756;2023-05-19T00:46:27;7.40;;;3.70;;
55312;SDS011;46892;45.668;11.756;2023-05-19T00:48:54;6.00;;;4.00;;
55312;SDS011;46892;45.668;11.756;2023-05-19T00:51:19;7.57;;;3.80;;
55312;SDS011;46892;45.668;11.756;2023-05-19T00:53:46;6.73;;;3.77;;
55312;SDS011;46892;45.668;11.756;2023-05-19T00:56:15;4.77;;;3.60;;
55312;SDS011;46892;45.668;11.756;2023-05-19T00:58:41;7.83;;;3.67;;
55312;SDS011;46892;45.668;11.756;2023-05-19T01:01:07;6.63;;;3.50;;
55312;SDS011;46892;45.668;11.756;2023-05-19T01:03:34;6.27;;;3.77;;
55312;SDS011;46892;45.668;11.756;2023-05-19T01:06:00;5.60;;;3.27;;
55312;SDS011;46892;45.668;11.756;2023-05-19T01:08:30;6.20;;;3.30;;
55312;SDS011;46892;45.668;11.756;2023-05-19T01:10:57;7.13;;;3.83;;
55312;SDS011;46892;45.668;11.756;2023-05-19T01:13:23;6.83;;;3.80;;
55312;SDS011;46892;45.668;11.756;2023-05-19T01:19:13;6.40;;;3.90;;
55312;SDS011;46892;45.668;11.756;2023-05-19T01:27:45;5.43;;;3.57;;
55312;SDS011;46892;45.668;11.756;2023-05-19T01:30:36;9.90;;;3.93;;
55312;SDS011;46892;45.668;11.756;2023-05-19T01:33:06;6.77;;;3.43;;
55312;SDS011;46892;45.668;11.756;2023-05-19T01:35:34;6.60;;;3.77;;
55312;SDS011;46892;45.668;11.756;2023-05-19T01:38:01;5.90;;;4.00;;
55312;SDS011;46892;45.668;11.756;2023-05-19T01:40:28;8.73;;;4.07;;
55312;SDS011;46892;45.668;11.756;2023-05-19T01:42:55;5.93;;;4.10;;
55312;SDS011;46892;45.668;11.756;2023-05-19T01:45:23;6.07;;;3.83;;
55312;SDS011;46892;45.668;11.756;2023-05-19T01:47:52;7.00;;;3.83;;
55312;SDS011;46892;45.668;11.756;2023-05-19T01:50:19;5.37;;;3.50;;
55312;SDS011;46892;45.668;11.756;2023-05-19T01:52:46;6.17;;;3.30;;
55312;SDS011;46892;45.668;11.756;2023-05-19T01:55:12;14.87;;;3.60;;
55312;SDS011;46892;45.668;11.756;2023-05-19T02:00:16;7.33;;;3.67;;
55312;SDS011;46892;45.668;11.756;2023-05-19T02:02:56;6.77;;;3.90;;
55312;SDS011;46892;45.668;11.756;2023-05-19T02:05:44;5.97;;;3.70;;
55312;SDS011;46892;45.668;11.756;2023-05-19T02:08:15;5.63;;;3.67;;
55312;SDS011;46892;45.668;11.756;2023-05-19T02:10:50;7.03;;;3.57;;
55312;SDS011;46892;45.668;11.756;2023-05-19T02:13:22;7.30;;;3.73;;
55312;SDS011;46892;45.668;11.756;2023-05-19T02:15:51;5.93;;;4.00;;
55312;SDS011;46892;45.668;11.756;2023-05-19T02:18:21;6.38;;;3.80;;
55312;SDS011;46892;45.668;11.756;2023-05-19T02:20:49;7.43;;;4.03;;
55312;SDS011;46892;45.668;11.756;2023-05-19T02:23:14;7.77;;;4.10;;
55312;SDS011;46892;45.668;11.756;2023-05-19T02:25:40;6.70;;;4.07;;
55312;SDS011;46892;45.668;11.756;2023-05-19T02:28:06;7.03;;;4.33;;
55312;SDS011;46892;45.668;11.756;2023-05-19T02:30:32;6.43;;;4.03;;
55312;SDS011;46892;45.668;11.756;2023-05-19T02:32:58;6.07;;;3.87;;
55312;SDS011;46892;45.668;11.756;2023-05-19T02:35:24;5.10;;;3.67;;
55312;SDS011;46892;45.668;11.756;2023-05-19T02:37:49;7.43;;;4.13;;
55312;SDS011;46892;45.668;11.756;2023-05-19T02:40:17;6.90;;;4.57;;
55312;SDS011;46892;45.668;11.756;2023-05-19T02:42:42;5.47;;;3.83;;
55312;SDS011;46892;45.668;11.756;2023-05-19T02:45:08;7.73;;;4.53;;
55312;SDS011;46892;45.668;11.756;2023-05-19T02:47:34;7.30;;;4.80;;
55312;SDS011;46892;45.668;11.756;2023-05-19T02:50:00;6.17;;;4.20;;
55312;SDS011;46892;45.668;11.756;2023-05-19T02:52:26;9.90;;;4.70;;
55312;SDS011;46892;45.668;11.756;2023-05-19T02:54:51;7.87;;;4.43;;
55312;SDS011;46892;45.668;11.756;2023-05-19T02:57:17;6.43;;;4.30;;
55312;SDS011;46892;45.668;11.756;2023-05-19T02:59:42;7.90;;;4.63;;
55312;SDS011;46892;45.668;11.756;2023-05-19T03:02:08;6.77;;;4.27;;
55312;SDS011;46892;45.668;11.756;2023-05-19T03:04:34;6.63;;;4.10;;
55312;SDS011;46892;45.668;11.756;2023-05-19T03:07:05;6.53;;;4.10;;
55312;SDS011;46892;45.668;11.756;2023-05-19T03:09:33;6.93;;;4.33;;
55312;SDS011;46892;45.668;11.756;2023-05-19T03:12:00;8.17;;;4.60;;
55312;SDS011;46892;45.668;11.756;2023-05-19T03:14:28;7.67;;;4.43;;
55312;SDS011;46892;45.668;11.756;2023-05-19T03:16:54;5.70;;;3.87;;
55312;SDS011;46892;45.668;11.756;2023-05-19T03:19:23;8.77;;;4.37;;
55312;SDS011;46892;45.668;11.756;2023-05-19T03:21:49;5.70;;;3.80;;
55312;SDS011;46892;45.668;11.756;2023-05-19T03:24:15;7.47;;;3.90;;
55312;SDS011;46892;45.668;11.756;2023-05-19T03:26:42;7.70;;;4.17;;
55312;SDS011;46892;45.668;11.756;2023-05-19T03:29:07;6.63;;;4.00;;
55312;SDS011;46892;45.668;11.756;2023-05-19T03:31:33;6.90;;;4.10;;
55312;SDS011;46892;45.668;11.756;2023-05-19T03:33:59;7.97;;;4.13;;
55312;SDS011;46892;45.668;11.756;2023-05-19T03:36:25;6.67;;;4.03;;
55312;SDS011;46892;45.668;11.756;2023-05-19T03:38:56;6.80;;;3.88;;
55312;SDS011;46892;45.668;11.756;2023-05-19T03:41:24;6.87;;;4.60;;
55312;SDS011;46892;45.668;11.756;2023-05-19T03:43:50;8.83;;;4.13;;
55312;SDS011;46892;45.668;11.756;2023-05-19T03:46:16;6.90;;;3.90;;
55312;SDS011;46892;45.668;11.756;2023-05-19T03:48:41;6.60;;;3.97;;
55312;SDS011;46892;45.668;11.756;2023-05-19T03:51:07;8.30;;;3.77;;
55312;SDS011;46892;45.668;11.756;2023-05-19T03:53:33;8.40;;;4.00;;
55312;SDS011;46892;45.668;11.756;2023-05-19T03:55:59;6.47;;;3.83;;
55312;SDS011;46892;45.668;11.756;2023-05-19T03:58:25;6.27;;;4.30;;
55312;SDS011;46892;45.668;11.756;2023-05-19T04:00:50;5.90;;;3.80;;
55312;SDS011;46892;45.668;11.756;2023-05-19T04:03:16;4.90;;;3.30;;
55312;SDS011;46892;45.668;11.756;2023-05-19T04:05:42;6.90;;;3.43;;
55312;SDS011;46892;45.668;11.756;2023-05-19T04:08:07;7.13;;;4.53;;
55312;SDS011;46892;45.668;11.756;2023-05-19T04:10:33;8.07;;;4.50;;
55312;SDS011;46892;45.668;11.756;2023-05-19T04:12:59;6.93;;;4.70;;
55312;SDS011;46892;45.668;11.756;2023-05-19T04:15:24;8.53;;;4.07;;
55312;SDS011;46892;45.668;11.756;2023-05-19T04:17:50;8.37;;;4.60;;
55312;SDS011;46892;45.668;11.756;2023-05-19T04:20:16;7.20;;;4.23;;
55312;SDS011;46892;45.668;11.756;2023-05-19T04:22:41;7.47;;;3.90;;
55312;SDS011;46892;45.668;11.756;2023-05-19T04:25:07;6.13;;;3.83;;
55312;SDS011;46892;45.668;11.756;2023-05-19T04:27:33;7.60;;;4.10;;
55312;SDS011;46892;45.668;11.756;2023-05-19T04:30:03;6.28;;;3.92;;
55312;SDS011;46892;45.668;11.756;2023-05-19T04:32:30;7.87;;;4.33;;
55312;SDS011;46892;45.668;11.756;2023-05-19T04:34:56;12.23;;;4.73;;
55312;SDS011;46892;45.668;11.756;2023-05-19T04:37:23;6.97;;;4.20;;
55312;SDS011;46892;45.668;11.756;2023-05-19T04:39:51;6.23;;;3.70;;
55312;SDS011;46892;45.668;11.756;2023-05-19T04:42:18;7.53;;;4.00;;
55312;SDS011;46892;45.668;11.756;2023-05-19T04:44:44;7.03;;;3.63;;
55312;SDS011;46892;45.668;11.756;2023-05-19T04:47:10;7.30;;;4.47;;
55312;SDS011;46892;45.668;11.756;2023-05-19T04:49:37;7.00;;;3.97;;
55312;SDS011;46892;45.668;11.756;2023-05-19T04:52:06;7.03;;;4.20;;
55312;SDS011;46892;45.668;11.756;2023-05-19T04:54:34;6.83;;;4.13;;
55312;SDS011;46892;45.668;11.756;2023-05-19T04:57:00;8.23;;;4.33;;
55312;SDS011;46892;45.668;11.756;2023-05-19T04:59:26;7.73;;;4.17;;
55312;SDS011;46892;45.668;11.756;2023-05-19T05:01:52;7.07;;;4.13;;
55312;SDS011;46892;45.668;11.756;2023-05-19T05:04:18;6.23;;;4.07;;
55312;SDS011;46892;45.668;11.756;2023-05-19T05:06:44;5.77;;;4.37;;
55312;SDS011;46892;45.668;11.756;2023-05-19T05:09:16;7.50;;;4.33;;
55312;SDS011;46892;45.668;11.756;2023-05-19T05:11:42;6.90;;;4.57;;
55312;SDS011;46892;45.668;11.756;2023-05-19T05:14:08;7.37;;;3.87;;
55312;SDS011;46892;45.668;11.756;2023-05-19T05:16:34;6.70;;;4.30;;
55312;SDS011;46892;45.668;11.756;2023-05-19T05:19:01;7.57;;;4.20;;
55312;SDS011;46892;45.668;11.756;2023-05-19T05:21:27;7.13;;;4.00;;
55312;SDS011;46892;45.668;11.756;2023-05-19T05:23:53;6.00;;;4.27;;
55312;SDS011;46892;45.668;11.756;2023-05-19T05:26:19;6.90;;;3.80;;
55312;SDS011;46892;45.668;11.756;2023-05-19T05:28:48;7.27;;;3.97;;
55312;SDS011;46892;45.668;11.756;2023-05-19T05:31:14;8.80;;;4.00;;
55312;SDS011;46892;45.668;11.756;2023-05-19T05:33:40;7.83;;;4.37;;
55312;SDS011;46892;45.668;11.756;2023-05-19T05:36:06;6.23;;;4.07;;
55312;SDS011;46892;45.668;11.756;2023-05-19T05:38:33;6.33;;;4.13;;
55312;SDS011;46892;45.668;11.756;2023-05-19T05:40:58;7.00;;;3.97;;
55312;SDS011;46892;45.668;11.756;2023-05-19T05:43:26;7.03;;;3.63;;
55312;SDS011;46892;45.668;11.756;2023-05-19T05:45:51;8.70;;;4.33;;
55312;SDS011;46892;45.668;11.756;2023-05-19T05:48:17;6.40;;;3.83;;
55312;SDS011;46892;45.668;11.756;2023-05-19T05:50:43;8.63;;;4.60;;
55312;SDS011;46892;45.668;11.756;2023-05-19T05:53:09;7.80;;;4.40;;
55312;SDS011;46892;45.668;11.756;2023-05-19T05:55:41;7.90;;;3.87;;
55312;SDS011;46892;45.668;11.756;2023-05-19T05:58:07;8.47;;;4.33;;
55312;SDS011;46892;45.668;11.756;2023-05-19T06:00:35;7.00;;;4.10;;
55312;SDS011;46892;45.668;11.756;2023-05-19T06:03:02;8.13;;;4.30;;
55312;SDS011;46892;45.668;11.756;2023-05-19T06:05:28;7.43;;;4.70;;
55312;SDS011;46892;45.668;11.756;2023-05-19T06:07:54;7.17;;;4.67;;
55312;SDS011;46892;45.668;11.756;2023-05-19T06:10:19;7.40;;;4.63;;
55312;SDS011;46892;45.668;11.756;2023-05-19T06:12:46;7.70;;;4.30;;
55312;SDS011;46892;45.668;11.756;2023-05-19T06:15:12;7.37;;;4.20;;
55312;SDS011;46892;45.668;11.756;2023-05-19T06:17:37;6.03;;;4.27;;
55312;SDS011;46892;45.668;11.756;2023-05-19T06:20:03;8.50;;;4.60;;
55312;SDS011;46892;45.668;11.756;2023-05-19T06:22:30;7.50;;;4.87;;
55312;SDS011;46892;45.668;11.756;2023-05-19T06:24:56;7.10;;;4.63;;
55312;SDS011;46892;45.668;11.756;2023-05-19T06:27:22;6.70;;;4.23;;
55312;SDS011;46892;45.668;11.756;2023-05-19T06:29:47;6.97;;;4.20;;
55312;SDS011;46892;45.668;11.756;2023-05-19T06:32:13;6.87;;;4.27;;
55312;SDS011;46892;45.668;11.756;2023-05-19T06:34:39;5.50;;;4.03;;
55312;SDS011;46892;45.668;11.756;2023-05-19T06:37:05;8.47;;;4.50;;
55312;SDS011;46892;45.668;11.756;2023-05-19T06:39:30;6.83;;;4.27;;
55312;SDS011;46892;45.668;11.756;2023-05-19T06:41:56;6.60;;;4.10;;
55312;SDS011;46892;45.668;11.756;2023-05-19T06:44:22;9.33;;;4.40;;
55312;SDS011;46892;45.668;11.756;2023-05-19T06:46:47;6.10;;;3.77;;
55312;SDS011;46892;45.668;11.756;2023-05-19T06:49:13;10.50;;;4.30;;
55312;SDS011;46892;45.668;11.756;2023-05-19T06:51:39;7.17;;;4.00;;
55312;SDS011;46892;45.668;11.756;2023-05-19T06:54:05;7.33;;;4.00;;
55312;SDS011;46892;45.668;11.756;2023-05-19T06:56:31;5.87;;;3.77;;
55312;SDS011;46892;45.668;11.756;2023-05-19T06:58:56;9.37;;;4.53;;
55312;SDS011;46892;45.668;11.756;2023-05-19T07:01:22;7.73;;;4.83;;
55312;SDS011;46892;45.668;11.756;2023-05-19T07:03:48;7.43;;;4.07;;
55312;SDS011;46892;45.668;11.756;2023-05-19T07:06:13;6.67;;;4.00;;
55312;SDS011;46892;45.668;11.756;2023-05-19T07:08:39;7.43;;;4.13;;
55312;SDS011;46892;45.668;11.756;2023-05-19T07:11:05;7.17;;;3.60;;
55312;SDS011;46892;45.668;11.756;2023-05-19T07:13:30;8.83;;;4.57;;
55312;SDS011;46892;45.668;11.756;2023-05-19T07:15:57;6.57;;;4.30;;
55312;SDS011;46892;45.668;11.756;2023-05-19T07:18:22;6.77;;;3.80;;
55312;SDS011;46892;45.668;11.756;2023-05-19T07:20:48;8.27;;;4.30;;
55312;SDS011;46892;45.668;11.756;2023-05-19T07:23:16;9.17;;;4.67;;
55312;SDS011;46892;45.668;11.756;2023-05-19T07:25:42;6.07;;;3.83;;
55312;SDS011;46892;45.668;11.756;2023-05-19T07:28:08;5.10;;;3.73;;
55312;SDS011;46892;45.668;11.756;2023-05-19T07:30:33;6.43;;;3.70;;
55312;SDS011;46892;45.668;11.756;2023-05-19T07:32:59;7.40;;;3.80;;
55312;SDS011;46892;45.668;11.756;2023-05-19T07:35:25;8.27;;;4.00;;
55312;SDS011;46892;45.668;11.756;2023-05-19T07:37:51;9.00;;;3.50;;
55312;SDS011;46892;45.668;11.756;2023-05-19T07:40:17;9.03;;;3.90;;
55312;SDS011;46892;45.668;11.756;2023-05-19T07:42:42;5.90;;;3.87;;
55312;SDS011;46892;45.668;11.756;2023-05-19T07:45:08;5.87;;;3.57;;
55312;SDS011;46892;45.668;11.756;2023-05-19T07:47:35;5.43;;;3.63;;
55312;SDS011;46892;45.668;11.756;2023-05-19T07:50:01;6.43;;;3.83;;
55312;SDS011;46892;45.668;11.756;2023-05-19T07:52:27;6.80;;;4.10;;
55312;SDS011;46892;45.668;11.756;2023-05-19T07:54:53;5.77;;;3.90;;
55312;SDS011;46892;45.668;11.756;2023-05-19T07:57:19;6.40;;;3.43;;
55312;SDS011;46892;45.668;11.756;2023-05-19T07:59:44;7.07;;;4.30;;
55312;SDS011;46892;45.668;11.756;2023-05-19T08:02:10;7.10;;;4.27;;
55312;SDS011;46892;45.668;11.756;2023-05-19T08:04:36;5.70;;;4.17;;
55312;SDS011;46892;45.668;11.756;2023-05-19T08:07:01;4.97;;;3.37;;
55312;SDS011;46892;45.668;11.756;2023-05-19T08:09:27;6.20;;;3.50;;
55312;SDS011;46892;45.668;11.756;2023-05-19T08:11:53;7.40;;;3.57;;
55312;SDS011;46892;45.668;11.756;2023-05-19T08:14:19;5.33;;;3.07;;
55312;SDS011;46892;45.668;11.756;2023-05-19T08:16:46;5.90;;;3.93;;
55312;SDS011;46892;45.668;11.756;2023-05-19T08:19:13;5.30;;;3.60;;
55312;SDS011;46892;45.668;11.756;2023-05-19T08:21:39;6.83;;;4.07;;
55312;SDS011;46892;45.668;11.756;2023-05-19T08:24:06;5.80;;;3.60;;
55312;SDS011;46892;45.668;11.756;2023-05-19T08:26:32;7.27;;;3.83;;
55312;SDS011;46892;45.668;11.756;2023-05-19T08:28:58;7.30;;;3.70;;
55312;SDS011;46892;45.668;11.756;2023-05-19T08:31:24;5.77;;;3.70;;
55312;SDS011;46892;45.668;11.756;2023-05-19T08:33:50;6.30;;;3.40;;
55312;SDS011;46892;45.668;11.756;2023-05-19T08:36:15;9.17;;;4.00;;
55312;SDS011;46892;45.668;11.756;2023-05-19T08:38:41;6.23;;;3.90;;
55312;SDS011;46892;45.668;11.756;2023-05-19T08:41:07;7.40;;;4.00;;
55312;SDS011;46892;45.668;11.756;2023-05-19T08:43:33;5.73;;;4.07;;
55312;SDS011;46892;45.668;11.756;2023-05-19T08:45:59;6.20;;;3.90;;
55312;SDS011;46892;45.668;11.756;2023-05-19T08:48:25;6.47;;;4.07;;
55312;SDS011;46892;45.668;11.756;2023-05-19T08:53:36;9.23;;;4.20;;
55312;SDS011;46892;45.668;11.756;2023-05-19T08:56:10;7.73;;;4.20;;
55312;SDS011;46892;45.668;11.756;2023-05-19T08:58:38;8.97;;;4.60;;
55312;SDS011;46892;45.668;11.756;2023-05-19T09:01:06;8.97;;;4.00;;
55312;SDS011;46892;45.668;11.756;2023-05-19T09:03:32;7.40;;;3.97;;
55312;SDS011;46892;45.668;11.756;2023-05-19T09:06:07;6.03;;;3.77;;
55312;SDS011;46892;45.668;11.756;2023-05-19T09:08:34;5.57;;;3.20;;
55312;SDS011;46892;45.668;11.756;2023-05-19T09:11:01;6.90;;;3.43;;
55312;SDS011;46892;45.668;11.756;2023-05-19T09:13:27;5.00;;;3.10;;
55312;SDS011;46892;45.668;11.756;2023-05-19T09:15:52;6.97;;;3.17;;
55312;SDS011;46892;45.668;11.756;2023-05-19T09:18:25;5.60;;;2.85;;
55312;SDS011;46892;45.668;11.756;2023-05-19T09:20:54;6.20;;;3.20;;
55312;SDS011;46892;45.668;11.756;2023-05-19T09:23:27;4.87;;;3.00;;
55312;SDS011;46892;45.668;11.756;2023-05-19T09:25:54;4.90;;;2.35;;
55312;SDS011;46892;45.668;11.756;2023-05-19T09:28:28;3.83;;;2.03;;
55312;SDS011;46892;45.668;11.756;2023-05-19T09:30:59;3.40;;;2.10;;
55312;SDS011;46892;45.668;11.756;2023-05-19T09:33:25;5.20;;;2.15;;
55312;SDS011;46892;45.668;11.756;2023-05-19T09:35:52;3.40;;;2.30;;
55312;SDS011;46892;45.668;11.756;2023-05-19T09:38:20;4.50;;;2.07;;
55312;SDS011;46892;45.668;11.756;2023-05-19T09:40:48;4.60;;;2.20;;
55312;SDS011;46892;45.668;11.756;2023-05-19T09:43:14;7.07;;;2.63;;
55312;SDS011;46892;45.668;11.756;2023-05-19T09:45:40;3.10;;;2.10;;
55312;SDS011;46892;45.668;11.756;2023-05-19T09:48:06;4.40;;;2.17;;
55312;SDS011;46892;45.668;11.756;2023-05-19T09:50:32;3.87;;;2.50;;
55312;SDS011;46892;45.668;11.756;2023-05-19T09:52:58;4.10;;;2.20;;
55312;SDS011;46892;45.668;11.756;2023-05-19T09:55:24;4.10;;;2.40;;
55312;SDS011;46892;45.668;11.756;2023-05-19T09:57:53;4.17;;;2.60;;
55312;SDS011;46892;45.668;11.756;2023-05-19T10:00:20;4.07;;;2.60;;
55312;SDS011;46892;45.668;11.756;2023-05-19T10:02:47;5.50;;;2.80;;
55312;SDS011;46892;45.668;11.756;2023-05-19T10:05:15;5.67;;;2.60;;
55312;SDS011;46892;45.668;11.756;2023-05-19T10:07:44;5.17;;;3.00;;
55312;SDS011;46892;45.668;11.756;2023-05-19T10:10:16;4.97;;;2.90;;
55312;SDS011;46892;45.668;11.756;2023-05-19T10:12:46;4.87;;;2.83;;
55312;SDS011;46892;45.668;11.756;2023-05-19T10:15:14;5.87;;;3.00;;
55312;SDS011;46892;45.668;11.756;2023-05-19T10:17:41;5.77;;;3.03;;
55312;SDS011;46892;45.668;11.756;2023-05-19T10:20:08;4.60;;;2.90;;
55312;SDS011;46892;45.668;11.756;2023-05-19T10:22:36;4.77;;;2.90;;
55312;SDS011;46892;45.668;11.756;2023-05-19T10:25:03;5.80;;;2.70;;
55312;SDS011;46892;45.668;11.756;2023-05-19T10:27:30;4.20;;;2.50;;
55312;SDS011;46892;45.668;11.756;2023-05-19T10:29:59;4.13;;;2.63;;
55312;SDS011;46892;45.668;11.756;2023-05-19T10:32:39;4.00;;;2.72;;
55312;SDS011;46892;45.668;11.756;2023-05-19T10:37:54;5.00;;;2.80;;
55312;SDS011;46892;45.668;11.756;2023-05-19T10:43:21;5.90;;;3.50;;
55312;SDS011;46892;45.668;11.756;2023-05-19T10:46:15;8.17;;;3.63;;
55312;SDS011;46892;45.668;11.756;2023-05-19T10:48:43;5.77;;;3.43;;
55312;SDS011;46892;45.668;11.756;2023-05-19T10:51:10;4.88;;;3.08;;
55312;SDS011;46892;45.668;11.756;2023-05-19T10:53:41;4.80;;;3.10;;
55312;SDS011;46892;45.668;11.756;2023-05-19T10:56:10;3.87;;;3.00;;
55312;SDS011;46892;45.668;11.756;2023-05-19T10:58:53;4.00;;;2.60;;
55312;SDS011;46892;45.668;11.756;2023-05-19T11:01:20;6.10;;;3.70;;
55312;SDS011;46892;45.668;11.756;2023-05-19T11:14:17;4.57;;;2.90;;
55312;SDS011;46892;45.668;11.756;2023-05-19T11:17:04;6.72;;;2.47;;
55312;SDS011;46892;45.668;11.756;2023-05-19T11:19:38;4.67;;;3.00;;
55312;SDS011;46892;45.668;11.756;2023-05-19T11:22:09;5.33;;;3.10;;
55312;SDS011;46892;45.668;11.756;2023-05-19T11:29:53;5.37;;;2.80;;
55312;SDS011;46892;45.668;11.756;2023-05-19T11:32:21;7.87;;;2.53;;
55312;SDS011;46892;45.668;11.756;2023-05-19T11:34:50;3.37;;;2.10;;
55312;SDS011;46892;45.668;11.756;2023-05-19T11:37:17;3.70;;;2.20;;
55312;SDS011;46892;45.668;11.756;2023-05-19T11:39:46;3.67;;;2.00;;
55312;SDS011;46892;45.668;11.756;2023-05-19T11:42:12;2.77;;;1.80;;
55312;SDS011;46892;45.668;11.756;2023-05-19T11:44:37;3.30;;;1.60;;
55312;SDS011;46892;45.668;11.756;2023-05-19T11:47:05;3.90;;;2.07;;
55312;SDS011;46892;45.668;11.756;2023-05-19T11:49:31;2.90;;;1.90;;
55312;SDS011;46892;45.668;11.756;2023-05-19T11:51:58;2.90;;;1.80;;
55312;SDS011;46892;45.668;11.756;2023-05-19T11:54:31;3.33;;;1.80;;
55312;SDS011;46892;45.668;11.756;2023-05-19T11:57:00;4.90;;;1.70;;
55312;SDS011;46892;45.668;11.756;2023-05-19T11:59:33;2.87;;;1.40;;
55312;SDS011;46892;45.668;11.756;2023-05-19T12:02:01;3.00;;;1.37;;
55312;SDS011;46892;45.668;11.756;2023-05-19T12:04:51;2.42;;;1.35;;
55312;SDS011;46892;45.668;11.756;2023-05-19T12:07:18;1.43;;;1.00;;
55312;SDS011;46892;45.668;11.756;2023-05-19T12:09:46;2.00;;;1.20;;
55312;SDS011;46892;45.668;11.756;2023-05-19T12:12:17;1.97;;;1.10;;
55312;SDS011;46892;45.668;11.756;2023-05-19T12:14:50;2.37;;;1.20;;
55312;SDS011;46892;45.668;11.756;2023-05-19T12:17:17;3.57;;;0.97;;
55312;SDS011;46892;45.668;11.756;2023-05-19T12:19:45;1.90;;;0.93;;
55312;SDS011;46892;45.668;11.756;2023-05-19T12:22:12;1.37;;;0.83;;
55312;SDS011;46892;45.668;11.756;2023-05-19T12:24:39;4.00;;;0.93;;
55312;SDS011;46892;45.668;11.756;2023-05-19T12:27:10;2.20;;;1.10;;
55312;SDS011;46892;45.668;11.756;2023-05-19T12:29:41;1.50;;;1.10;;
55312;SDS011;46892;45.668;11.756;2023-05-19T12:32:07;1.70;;;1.20;;
55312;SDS011;46892;45.668;11.756;2023-05-19T12:34:36;2.67;;;1.03;;
55312;SDS011;46892;45.668;11.756;2023-05-19T12:37:03;1.00;;;0.60;;
55312;SDS011;46892;45.668;11.756;2023-05-19T12:39:29;0.93;;;0.60;;
55312;SDS011;46892;45.668;11.756;2023-05-19T12:42:02;1.47;;;0.60;;
55312;SDS011;46892;45.668;11.756;2023-05-19T12:44:28;0.60;;;0.50;;
55312;SDS011;46892;45.668;11.756;2023-05-19T12:46:55;1.23;;;0.70;;
55312;SDS011;46892;45.668;11.756;2023-05-19T12:49:22;1.17;;;0.50;;
55312;SDS011;46892;45.668;11.756;2023-05-19T12:51:51;1.27;;;0.60;;
55312;SDS011;46892;45.668;11.756;2023-05-19T12:54:19;2.05;;;0.60;;
55312;SDS011;46892;45.668;11.756;2023-05-19T12:56:49;0.93;;;0.70;;
55312;SDS011;46892;45.668;11.756;2023-05-19T12:59:22;1.67;;;0.82;;
55312;SDS011;46892;45.668;11.756;2023-05-19T13:01:58;1.53;;;0.80;;
55312;SDS011;46892;45.668;11.756;2023-05-19T13:04:26;1.53;;;0.80;;
55312;SDS011;46892;45.668;11.756;2023-05-19T13:06:52;6.10;;;1.10;;
55312;SDS011;46892;45.668;11.756;2023-05-19T13:09:19;1.00;;;0.70;;
55312;SDS011;46892;45.668;11.756;2023-05-19T13:11:45;0.80;;;0.60;;
55312;SDS011;46892;45.668;11.756;2023-05-19T13:14:16;0.83;;;0.50;;
55312;SDS011;46892;45.668;11.756;2023-05-19T13:16:45;2.30;;;0.80;;
55312;SDS011;46892;45.668;11.756;2023-05-19T13:19:13;1.23;;;0.60;;
55312;SDS011;46892;45.668;11.756;2023-05-19T13:24:07;0.70;;;0.70;;
55312;SDS011;46892;45.668;11.756;2023-05-19T13:26:33;3.60;;;0.60;;
55312;SDS011;46892;45.668;11.756;2023-05-19T13:28:59;0.50;;;0.50;;
55312;SDS011;46892;45.668;11.756;2023-05-19T13:31:26;1.60;;;0.50;;
55312;SDS011;46892;45.668;11.756;2023-05-19T13:33:52;1.17;;;0.60;;
55312;SDS011;46892;45.668;11.756;2023-05-19T13:36:18;1.10;;;0.60;;
55312;SDS011;46892;45.668;11.756;2023-05-19T13:38:43;0.73;;;0.53;;
55312;SDS011;46892;45.668;11.756;2023-05-19T13:41:09;0.87;;;0.70;;
55312;SDS011;46892;45.668;11.756;2023-05-19T13:43:36;0.83;;;0.43;;
55312;SDS011;46892;45.668;11.756;2023-05-19T13:46:01;1.37;;;0.60;;
55312;SDS011;46892;45.668;11.756;2023-05-19T13:48:27;2.07;;;0.80;;
55312;SDS011;46892;45.668;11.756;2023-05-19T13:50:53;1.33;;;0.70;;
55312;SDS011;46892;45.668;11.756;2023-05-19T13:53:19;2.07;;;0.60;;
55312;SDS011;46892;45.668;11.756;2023-05-19T13:55:45;1.13;;;0.70;;
55312;SDS011;46892;45.668;11.756;2023-05-19T13:58:11;3.43;;;0.70;;
55312;SDS011;46892;45.668;11.756;2023-05-19T14:00:39;1.87;;;0.70;;
55312;SDS011;46892;45.668;11.756;2023-05-19T14:03:05;2.57;;;0.83;;
55312;SDS011;46892;45.668;11.756;2023-05-19T14:05:31;0.63;;;0.50;;
55312;SDS011;46892;45.668;11.756;2023-05-19T14:07:57;1.33;;;0.70;;
55312;SDS011;46892;45.668;11.756;2023-05-19T14:10:24;1.30;;;0.70;;
55312;SDS011;46892;45.668;11.756;2023-05-19T14:12:50;0.80;;;0.77;;
55312;SDS011;46892;45.668;11.756;2023-05-19T14:15:18;1.13;;;0.60;;
55312;SDS011;46892;45.668;11.756;2023-05-19T14:17:44;1.37;;;0.60;;
55312;SDS011;46892;45.668;11.756;2023-05-19T14:20:10;1.47;;;0.70;;
55312;SDS011;46892;45.668;11.756;2023-05-19T14:22:36;1.40;;;0.80;;
55312;SDS011;46892;45.668;11.756;2023-05-19T14:25:01;3.57;;;0.77;;
55312;SDS011;46892;45.668;11.756;2023-05-19T14:27:27;1.63;;;0.90;;
55312;SDS011;46892;45.668;11.756;2023-05-19T14:29:53;1.10;;;0.80;;
55312;SDS011;46892;45.668;11.756;2023-05-19T14:32:18;1.47;;;0.90;;
55312;SDS011;46892;45.668;11.756;2023-05-19T14:34:44;1.07;;;0.80;;
55312;SDS011;46892;45.668;11.756;2023-05-19T14:37:10;2.47;;;0.80;;
55312;SDS011;46892;45.668;11.756;2023-05-19T14:39:36;2.97;;;1.00;;
55312;SDS011;46892;45.668;11.756;2023-05-19T14:42:01;1.43;;;0.80;;
55312;SDS011;46892;45.668;11.756;2023-05-19T14:44:30;2.90;;;1.23;;
55312;SDS011;46892;45.668;11.756;2023-05-19T14:46:57;1.20;;;0.70;;
55312;SDS011;46892;45.668;11.756;2023-05-19T14:49:24;1.97;;;1.10;;
55312;SDS011;46892;45.668;11.756;2023-05-19T14:51:50;2.33;;;1.00;;
55312;SDS011;46892;45.668;11.756;2023-05-19T14:54:15;2.03;;;1.10;;
55312;SDS011;46892;45.668;11.756;2023-05-19T14:56:41;1.17;;;0.87;;
55312;SDS011;46892;45.668;11.756;2023-05-19T14:59:07;1.77;;;0.80;;
55312;SDS011;46892;45.668;11.756;2023-05-19T15:01:32;1.10;;;0.73;;
55312;SDS011;46892;45.668;11.756;2023-05-19T15:03:58;2.07;;;0.97;;
55312;SDS011;46892;45.668;11.756;2023-05-19T15:06:23;3.00;;;1.00;;
55312;SDS011;46892;45.668;11.756;2023-05-19T15:08:49;1.80;;;1.00;;
55312;SDS011;46892;45.668;11.756;2023-05-19T15:11:15;1.30;;;1.00;;